createdAt,value
2018-12-11T00:01:08.718Z,100335.19
2018-12-11T00:03:37.775Z,100339.52
2018-12-11T00:06:23.671Z,100332.89
2018-12-11T00:08:52.726Z,100332.52
2018-12-11T00:11:21.797Z,100332.70
2018-12-11T00:13:50.869Z,100334.16
2018-12-11T00:16:24.146Z,100334.46
2018-12-11T00:18:53.250Z,100329.62
2018-12-11T00:21:22.291Z,100327.92
2018-12-11T00:23:51.350Z,100331.03
2018-12-11T00:26:21.392Z,100333.75
2018-12-11T00:28:50.420Z,100325.73
2018-12-11T00:31:19.470Z,100330.21
2018-12-11T00:33:48.556Z,100333.59
2018-12-11T00:36:22.341Z,100331.15
2018-12-11T00:38:51.610Z,100337.08
2018-12-11T00:41:20.648Z,100336.02
2018-12-11T00:43:49.696Z,100330.77
2018-12-11T00:46:18.792Z,100329.50
2018-12-11T00:48:47.866Z,100334.52
2018-12-11T00:51:16.911Z,100336.90
2018-12-11T00:53:45.999Z,100329.92
2018-12-11T00:56:15.046Z,100326.37
2018-12-11T00:58:44.115Z,100330.33
2018-12-11T01:01:13.329Z,100332.33
2018-12-11T01:03:42.368Z,100336.91
2018-12-11T01:06:14.791Z,100336.38
2018-12-11T01:08:43.865Z,100339.18
2018-12-11T01:11:12.912Z,100341.10
2018-12-11T01:13:41.995Z,100340.72
2018-12-11T01:16:11.056Z,100343.44
2018-12-11T01:18:40.097Z,100341.20
2018-12-11T01:21:09.220Z,100340.22
2018-12-11T01:23:38.272Z,100339.19
2018-12-11T01:26:07.324Z,100342.00
2018-12-11T01:28:36.398Z,100342.66
2018-12-11T01:31:05.467Z,100345.58
2018-12-11T01:33:34.516Z,100352.14
2018-12-11T01:36:03.587Z,100355.47
2018-12-11T01:38:32.643Z,100349.66
2018-12-11T01:41:01.699Z,100349.42
2018-12-11T01:43:30.957Z,100349.23
2018-12-11T01:45:59.998Z,100356.75
2018-12-11T01:48:29.056Z,100364.53
2018-12-11T01:50:58.174Z,100373.80
2018-12-11T01:53:27.226Z,100381.70
2018-12-11T01:55:57.323Z,100373.28
2018-12-11T01:58:26.398Z,100380.36
2018-12-11T02:00:55.442Z,100375.97
2018-12-11T02:03:24.491Z,100380.24
2018-12-11T02:05:53.591Z,100385.50
2018-12-11T02:08:22.651Z,100379.70
2018-12-11T02:10:51.699Z,100381.66
2018-12-11T02:13:20.809Z,100387.92
2018-12-11T02:15:49.861Z,100392.97
2018-12-11T02:18:18.907Z,100391.60
2018-12-11T02:20:47.987Z,100397.10
2018-12-11T02:23:17.041Z,100404.38
2018-12-11T02:25:46.093Z,100404.90
2018-12-11T02:28:15.189Z,100409.05
2018-12-11T02:30:44.247Z,100407.50
2018-12-11T02:33:13.305Z,100411.09
2018-12-11T02:35:42.377Z,100415.61
2018-12-11T02:38:11.434Z,100412.45
2018-12-11T02:40:40.475Z,100415.34
2018-12-11T02:43:09.555Z,100416.52
2018-12-11T02:45:38.624Z,100412.63
2018-12-11T02:48:07.694Z,100422.02
2018-12-11T02:50:36.792Z,100420.94
2018-12-11T02:53:05.836Z,100416.32
2018-12-11T02:55:34.890Z,100422.77
2018-12-11T02:58:04.060Z,100424.89
2018-12-11T03:00:33.085Z,100426.16
2018-12-11T03:03:02.126Z,100432.45
2018-12-11T03:05:31.204Z,100431.13
2018-12-11T03:08:00.244Z,100436.72
2018-12-11T03:10:29.285Z,100432.17
2018-12-11T03:12:58.380Z,100429.33
2018-12-11T03:15:27.429Z,100429.49
2018-12-11T03:17:56.483Z,100439.97
2018-12-11T03:20:25.560Z,100433.22
2018-12-11T03:22:54.626Z,100439.45
2018-12-11T03:25:23.661Z,100443.69
2018-12-11T03:27:52.753Z,100444.09
2018-12-11T03:30:21.811Z,100454.06
2018-12-11T03:32:50.870Z,100449.29
2018-12-11T03:35:19.951Z,100452.81
2018-12-11T03:37:48.999Z,100452.80
2018-12-11T03:40:18.050Z,100453.92
2018-12-11T03:42:47.139Z,100460.48
2018-12-11T03:45:16.187Z,100466.27
2018-12-11T03:47:45.228Z,100463.57
2018-12-11T03:50:14.317Z,100467.55
2018-12-11T03:52:43.375Z,100471.61
2018-12-11T03:55:12.411Z,100475.59
2018-12-11T03:57:41.685Z,100473.59
2018-12-11T04:00:10.729Z,100475.73
2018-12-11T04:02:39.794Z,100480.45
2018-12-11T04:05:08.870Z,100476.30
2018-12-11T04:07:37.918Z,100479.48
2018-12-11T04:10:06.981Z,100475.56
2018-12-11T04:12:36.055Z,100475.77
2018-12-11T04:15:05.121Z,100483.89
2018-12-11T04:17:34.169Z,100480.25
2018-12-11T04:20:03.270Z,100487.69
2018-12-11T04:22:32.342Z,100482.79
2018-12-11T04:25:01.377Z,100489.30
2018-12-11T04:27:30.478Z,100495.88
2018-12-11T04:29:59.526Z,100498.84
2018-12-11T04:32:28.586Z,100506.09
2018-12-11T04:34:57.671Z,100506.89
2018-12-11T04:37:26.707Z,100507.28
2018-12-11T04:39:55.761Z,100519.59
2018-12-11T04:42:24.893Z,100514.55
2018-12-11T04:44:53.921Z,100518.54
2018-12-11T04:47:22.969Z,100521.86
2018-12-11T04:49:52.040Z,100521.19
2018-12-11T04:52:21.100Z,100523.82
2018-12-11T04:54:50.136Z,100523.84
2018-12-11T04:57:19.224Z,100533.26
2018-12-11T04:59:48.277Z,100538.96
2018-12-11T05:02:17.336Z,100543.91
2018-12-11T05:04:46.422Z,100552.39
2018-12-11T05:07:15.465Z,100560.48
2018-12-11T05:09:44.519Z,100562.25
2018-12-11T05:12:13.618Z,100561.84
2018-12-11T05:14:42.681Z,100565.00
2018-12-11T05:17:11.747Z,100575.61
2018-12-11T05:19:40.847Z,100578.52
2018-12-11T05:22:09.901Z,100579.55
2018-12-11T05:24:38.964Z,100587.50
2018-12-11T05:27:08.076Z,100588.12
2018-12-11T05:29:37.724Z,100583.55
2018-12-11T05:32:06.784Z,100585.84
2018-12-11T05:34:35.884Z,100591.91
2018-12-11T05:37:04.947Z,100591.09
2018-12-11T05:39:34.015Z,100594.84
2018-12-11T05:42:03.095Z,100590.82
2018-12-11T05:44:32.155Z,100593.05
2018-12-11T05:47:01.225Z,100599.14
2018-12-11T05:49:30.398Z,100601.70
2018-12-11T05:51:59.440Z,100603.76
2018-12-11T05:54:28.500Z,100606.97
2018-12-11T05:56:57.592Z,100607.25
2018-12-11T05:59:26.672Z,100610.03
2018-12-11T06:01:55.748Z,100617.25
2018-12-11T06:04:24.844Z,100620.46
2018-12-11T06:06:53.909Z,100624.33
2018-12-11T06:09:22.975Z,100634.28
2018-12-11T06:11:52.107Z,100628.88
2018-12-11T06:14:21.167Z,100634.78
2018-12-11T06:16:50.235Z,100637.62
2018-12-11T06:19:19.330Z,100644.73
2018-12-11T06:21:48.390Z,100632.67
2018-12-11T06:24:17.466Z,100644.88
2018-12-11T06:26:46.559Z,100639.84
2018-12-11T06:29:15.605Z,100639.93
2018-12-11T06:31:44.675Z,100652.71
2018-12-11T06:34:13.787Z,100657.35
2018-12-11T06:36:42.851Z,100659.00
2018-12-11T06:39:11.921Z,100657.03
2018-12-11T06:41:41.046Z,100663.84
2018-12-11T06:44:10.090Z,100670.42
2018-12-11T06:46:39.158Z,100675.23
2018-12-11T06:49:08.257Z,100678.05
2018-12-11T06:51:37.300Z,100684.67
2018-12-11T06:54:06.363Z,100690.05
2018-12-11T06:56:35.477Z,100691.47
2018-12-11T06:59:04.537Z,100699.38
2018-12-11T07:01:33.597Z,100696.00
2018-12-11T07:04:02.694Z,100703.91
2018-12-11T07:06:31.744Z,100702.19
2018-12-11T07:09:00.813Z,100708.83
2018-12-11T07:11:29.886Z,100707.97
2018-12-11T07:13:58.944Z,100703.32
2018-12-11T07:16:27.997Z,100713.28
2018-12-11T07:18:57.123Z,100712.16
2018-12-11T07:21:26.168Z,100715.21
2018-12-11T07:23:55.233Z,100716.84
2018-12-11T07:26:24.322Z,100726.13
2018-12-11T07:28:53.382Z,100722.69
2018-12-11T07:31:22.445Z,100732.93
2018-12-11T07:33:51.519Z,100738.36
2018-12-11T07:36:20.565Z,100734.64
2018-12-11T07:38:49.624Z,100741.65
2018-12-11T07:41:18.762Z,100743.80
2018-12-11T07:43:47.833Z,100748.03
2018-12-11T07:46:16.934Z,100756.47
2018-12-11T07:48:46.022Z,100752.83
2018-12-11T07:51:15.080Z,100767.00
2018-12-11T07:53:44.127Z,100763.58
2018-12-11T07:56:13.228Z,100762.31
2018-12-11T07:58:42.295Z,100766.00
2018-12-11T08:01:11.349Z,100767.98
2018-12-11T08:03:40.449Z,100767.73
2018-12-11T08:06:10.527Z,100767.45
2018-12-11T08:08:39.595Z,100769.09
2018-12-11T08:11:08.679Z,100774.31
2018-12-11T08:13:37.760Z,100782.66
2018-12-11T08:16:06.812Z,100785.84
2018-12-11T08:18:35.896Z,100790.56
2018-12-11T08:21:04.954Z,100786.66
2018-12-11T08:23:34.013Z,100800.95
2018-12-11T08:26:03.118Z,100792.16
2018-12-11T08:28:32.159Z,100799.69
2018-12-11T08:31:01.695Z,100802.27
2018-12-11T08:33:30.787Z,100810.08
2018-12-11T08:35:59.853Z,100810.09
2018-12-11T08:38:28.920Z,100814.02
2018-12-11T08:40:57.999Z,100811.50
2018-12-11T08:43:27.702Z,100810.80
2018-12-11T08:45:56.765Z,100815.95
2018-12-11T08:48:25.875Z,100820.92
2018-12-11T08:50:54.947Z,100826.41
2018-12-11T08:53:24.012Z,100827.31
2018-12-11T08:55:53.092Z,100837.98
2018-12-11T08:58:22.142Z,100844.84
2018-12-11T09:00:51.204Z,100844.16
2018-12-11T09:03:20.297Z,100847.52
2018-12-11T09:08:52.805Z,100855.99
2018-12-11T09:11:21.853Z,100856.00
2018-12-11T09:13:50.903Z,100859.56
2018-12-11T09:16:26.582Z,100858.09
2018-12-11T09:18:55.634Z,100861.70
2018-12-11T09:21:24.683Z,100869.31
2018-12-11T09:23:54.363Z,100876.28
2018-12-11T09:26:22.843Z,100877.91
2018-12-11T09:28:51.906Z,100876.95
2018-12-11T09:31:21.000Z,100876.89
2018-12-11T09:33:50.044Z,100885.84
2018-12-11T09:36:42.441Z,100882.31
2018-12-11T09:39:11.499Z,100880.14
2018-12-11T09:41:40.559Z,100885.39
2018-12-11T09:44:09.669Z,100887.09
2018-12-11T09:46:38.722Z,100881.25
2018-12-11T09:49:07.796Z,100884.02
2018-12-11T09:51:36.880Z,100890.57
2018-12-11T09:54:05.928Z,100891.31
2018-12-11T09:56:54.391Z,100898.19
2018-12-11T09:59:23.724Z,100898.15
2018-12-11T10:01:52.505Z,100899.96
2018-12-11T10:04:21.619Z,100904.80
2018-12-11T10:06:50.676Z,100906.41
2018-12-11T10:09:19.736Z,100905.47
2018-12-11T10:11:48.821Z,100906.62
2018-12-11T10:14:17.867Z,100903.59
2018-12-11T10:16:46.933Z,100911.89
2018-12-11T10:19:16.008Z,100910.36
2018-12-11T10:21:45.068Z,100918.05
2018-12-11T10:24:14.125Z,100921.91
2018-12-11T10:26:43.238Z,100916.47
2018-12-11T10:29:12.299Z,100924.25
2018-12-11T10:31:41.351Z,100928.39
2018-12-11T10:34:10.441Z,100924.77
2018-12-11T10:36:39.508Z,100933.83
2018-12-11T10:39:08.571Z,100930.94
2018-12-11T10:41:37.664Z,100930.89
2018-12-11T10:44:06.723Z,100931.80
2018-12-11T10:46:35.777Z,100935.80
2018-12-11T10:49:04.872Z,100939.92
2018-12-11T10:51:33.945Z,100947.73
2018-12-11T10:54:02.999Z,100944.59
2018-12-11T10:56:42.297Z,100947.98
2018-12-11T10:59:11.365Z,100951.84
2018-12-11T11:01:40.416Z,100946.43
2018-12-11T11:04:09.566Z,100951.54
2018-12-11T11:06:38.684Z,100949.02
2018-12-11T11:09:07.734Z,100953.50
2018-12-11T11:11:36.852Z,100959.59
2018-12-11T11:14:05.883Z,100961.30
2018-12-11T11:16:58.869Z,100964.03
2018-12-11T11:19:27.925Z,100963.45
2018-12-11T11:21:57.165Z,100965.64
2018-12-11T11:24:26.218Z,100969.97
2018-12-11T11:26:55.264Z,100971.58
2018-12-11T11:29:24.348Z,100978.59
2018-12-11T11:31:53.402Z,100983.28
2018-12-11T11:34:22.464Z,100985.40
2018-12-11T11:36:51.566Z,100989.55
2018-12-11T11:39:20.645Z,100991.75
2018-12-11T11:41:49.718Z,100997.01
2018-12-11T11:44:18.822Z,100995.59
2018-12-11T11:46:47.881Z,101009.73
2018-12-11T11:49:16.944Z,101004.27
2018-12-11T11:51:46.323Z,101012.46
2018-12-11T11:54:15.377Z,101017.63
2018-12-11T11:56:44.438Z,101025.36
2018-12-11T11:59:13.728Z,101026.13
2018-12-11T12:01:42.781Z,101024.16
2018-12-11T12:04:11.844Z,101041.88
2018-12-11T12:06:40.962Z,101042.47
2018-12-11T12:09:10.023Z,101050.27
2018-12-11T12:11:39.078Z,101049.08
2018-12-11T12:14:08.164Z,101051.40
2018-12-11T12:16:37.231Z,101051.94
2018-12-11T12:19:06.302Z,101062.62
2018-12-11T12:21:35.404Z,101064.96
2018-12-11T12:24:04.431Z,101070.27
2018-12-11T12:26:33.492Z,101074.86
2018-12-11T12:29:02.619Z,101087.27
2018-12-11T12:31:31.675Z,101085.60
2018-12-11T12:34:00.713Z,101087.12
2018-12-11T12:36:29.794Z,101095.19
2018-12-11T12:38:58.849Z,101098.39
2018-12-11T12:41:27.898Z,101099.84
2018-12-11T12:43:57.063Z,101101.95
2018-12-11T12:46:26.110Z,101104.08
2018-12-11T12:48:55.185Z,101111.34
2018-12-11T12:51:24.273Z,101115.81
2018-12-11T12:53:53.336Z,101119.70
2018-12-11T12:56:22.384Z,101119.74
2018-12-11T12:58:51.467Z,101123.92
2018-12-11T13:01:20.523Z,101131.94
2018-12-11T13:03:49.573Z,101136.16
2018-12-11T13:06:19.625Z,101141.61
2018-12-11T13:08:48.695Z,101139.06
2018-12-11T13:11:17.740Z,101148.84
2018-12-11T13:13:46.842Z,101151.09
2018-12-11T13:16:15.895Z,101157.81
2018-12-11T13:18:45.011Z,101164.41
2018-12-11T13:21:14.030Z,101165.41
2018-12-11T13:23:43.090Z,101173.03
2018-12-11T13:26:12.162Z,101172.33
2018-12-11T13:28:41.239Z,101174.08
2018-12-11T13:31:10.286Z,101182.84
2018-12-11T13:33:39.350Z,101184.73
2018-12-11T13:36:08.460Z,101191.64
2018-12-11T13:38:37.514Z,101198.59
2018-12-11T13:41:06.573Z,101205.98
2018-12-11T13:43:35.866Z,101210.88
2018-12-11T13:46:10.618Z,101213.12
2018-12-11T13:48:39.694Z,101219.25
2018-12-11T13:51:08.740Z,101221.04
2018-12-11T13:53:37.792Z,101226.14
2018-12-11T13:56:06.912Z,101231.62
2018-12-11T13:58:35.979Z,101237.17
2018-12-11T14:01:05.039Z,101243.33
2018-12-11T14:03:34.125Z,101249.94
2018-12-11T14:06:05.172Z,101253.88
2018-12-11T14:08:34.221Z,101261.66
2018-12-11T14:11:03.306Z,101259.60
2018-12-11T14:13:32.363Z,101266.61
2018-12-11T14:16:01.425Z,101275.92
2018-12-11T14:18:30.515Z,101276.02
2018-12-11T14:20:59.573Z,101281.94
2018-12-11T14:23:28.636Z,101283.16
2018-12-11T14:26:21.311Z,101279.62
2018-12-11T14:28:50.366Z,101291.41
2018-12-11T14:31:19.427Z,101294.13
2018-12-11T14:33:48.618Z,101300.75
2018-12-11T14:36:17.665Z,101307.19
2018-12-11T14:38:46.739Z,101310.67
2018-12-11T14:41:15.909Z,101313.35
2018-12-11T14:43:44.944Z,101317.42
2018-12-11T14:46:14.011Z,101314.50
2018-12-11T14:48:43.104Z,101324.19
2018-12-11T14:51:12.161Z,101323.29
2018-12-11T14:53:41.218Z,101330.92
2018-12-11T14:56:10.311Z,101330.63
2018-12-11T14:58:39.387Z,101333.64
2018-12-11T15:01:08.449Z,101341.94
2018-12-11T15:03:37.539Z,101338.09
2018-12-11T15:06:06.615Z,101344.08
2018-12-11T15:08:35.673Z,101352.55
2018-12-11T15:11:04.763Z,101354.61
2018-12-11T15:13:33.829Z,101353.97
2018-12-11T15:16:04.952Z,101358.55
2018-12-11T15:18:34.004Z,101370.73
2018-12-11T15:21:03.080Z,101375.67
2018-12-11T15:23:32.180Z,101369.49
2018-12-11T15:26:01.246Z,101375.02
2018-12-11T15:28:30.303Z,101384.28
2018-12-11T15:31:08.131Z,101383.04
2018-12-11T15:33:37.196Z,101382.12
2018-12-11T15:36:10.982Z,101387.61
2018-12-11T15:38:40.029Z,101391.60
2018-12-11T15:41:09.087Z,101396.07
2018-12-11T15:43:38.191Z,101401.91
2018-12-11T15:46:07.263Z,101406.59
2018-12-11T15:48:36.338Z,101406.92
2018-12-11T15:51:05.444Z,101406.37
2018-12-11T15:53:34.512Z,101419.14
2018-12-11T15:56:03.574Z,101414.52
2018-12-11T15:58:32.687Z,101417.38
2018-12-11T16:01:01.739Z,101423.83
2018-12-11T16:03:30.812Z,101428.82
2018-12-11T16:05:59.941Z,101437.98
2018-12-11T16:08:29.009Z,101438.03
2018-12-11T16:10:58.069Z,101444.27
2018-12-11T16:13:27.195Z,101454.21
2018-12-11T16:15:56.265Z,101461.80
2018-12-11T16:18:25.335Z,101466.27
2018-12-11T16:20:54.436Z,101472.06
2018-12-11T16:23:23.512Z,101473.05
2018-12-11T16:25:58.251Z,101474.84
2018-12-11T16:28:27.315Z,101477.23
2018-12-11T16:30:56.375Z,101482.79
2018-12-11T16:33:25.475Z,101482.80
2018-12-11T16:35:54.533Z,101491.97
2018-12-11T16:38:23.596Z,101494.63
2018-12-11T16:40:52.690Z,101499.41
2018-12-11T16:43:21.754Z,101495.52
2018-12-11T16:46:01.921Z,101506.58
2018-12-11T16:48:30.976Z,101504.56
2018-12-11T16:51:00.050Z,101513.41
2018-12-11T16:53:29.157Z,101513.72
2018-12-11T16:55:58.227Z,101512.28
2018-12-11T16:58:27.300Z,101521.41
2018-12-11T17:00:56.387Z,101526.43
2018-12-11T17:03:25.459Z,101534.58
2018-12-11T17:05:56.560Z,101531.18
2018-12-11T17:08:25.652Z,101540.27
2018-12-11T17:10:54.721Z,101543.12
2018-12-11T17:13:23.770Z,101550.53
2018-12-11T17:16:09.503Z,101556.58
2018-12-11T17:18:38.573Z,101562.61
2018-12-11T17:21:07.644Z,101572.95
2018-12-11T17:23:36.729Z,101581.23
2018-12-11T17:26:05.787Z,101588.84
2018-12-11T17:28:34.855Z,101585.96
2018-12-11T17:31:03.945Z,101589.47
2018-12-11T17:33:32.998Z,101595.50
2018-12-11T17:36:02.071Z,101602.34
2018-12-11T17:38:31.365Z,101605.38
2018-12-11T17:41:00.420Z,101609.08
2018-12-11T17:43:29.476Z,101611.49
2018-12-11T17:45:58.559Z,101617.22
2018-12-11T17:48:27.605Z,101619.83
2018-12-11T17:50:56.665Z,101622.28
2018-12-11T17:53:25.744Z,101624.20
2018-12-11T17:55:54.810Z,101630.37
2018-12-11T17:58:23.873Z,101628.60
2018-12-11T18:00:52.997Z,101642.41
2018-12-11T18:03:22.069Z,101646.92
2018-12-11T18:05:51.127Z,101638.09
2018-12-11T18:08:20.225Z,101648.55
2018-12-11T18:10:49.295Z,101645.02
2018-12-11T18:13:18.381Z,101650.80
2018-12-11T18:15:47.465Z,101652.48
2018-12-11T18:18:16.542Z,101654.46
2018-12-11T18:20:45.622Z,101666.18
2018-12-11T18:23:14.747Z,101663.66
2018-12-11T18:25:46.974Z,101669.55
2018-12-11T18:28:16.075Z,101676.80
2018-12-11T18:30:45.130Z,101676.67
2018-12-11T18:33:14.178Z,101684.14
2018-12-11T18:35:47.565Z,101683.53
2018-12-11T18:38:16.629Z,101684.78
2018-12-11T18:40:45.704Z,101693.89
2018-12-11T18:43:14.825Z,101691.81
2018-12-11T18:45:43.866Z,101695.41
2018-12-11T18:48:12.926Z,101700.27
2018-12-11T18:50:42.015Z,101700.92
2018-12-11T18:53:11.073Z,101701.86
2018-12-11T18:55:50.027Z,101714.29
2018-12-11T18:58:19.089Z,101720.09
2018-12-11T19:00:48.143Z,101719.55
2018-12-11T19:03:17.258Z,101730.27
2018-12-11T19:05:46.330Z,101733.81
2018-12-11T19:08:15.390Z,101733.94
2018-12-11T19:10:44.486Z,101735.56
2018-12-11T19:13:13.547Z,101744.58
2018-12-11T19:15:59.383Z,101746.20
2018-12-11T19:18:28.455Z,101748.58
2018-12-11T19:20:57.528Z,101748.67
2018-12-11T19:23:26.647Z,101746.61
2018-12-11T19:25:55.715Z,101749.66
2018-12-11T19:28:24.815Z,101755.08
2018-12-11T19:30:53.931Z,101755.89
2018-12-11T19:33:23.001Z,101754.80
2018-12-11T19:35:52.072Z,101757.05
2018-12-11T19:38:21.169Z,101765.59
2018-12-11T19:40:50.250Z,101767.06
2018-12-11T19:43:19.318Z,101775.90
2018-12-11T19:45:48.471Z,101779.48
2018-12-11T19:48:17.547Z,101779.88
2018-12-11T19:50:46.609Z,101787.02
2018-12-11T19:53:15.713Z,101789.76
2018-12-11T19:56:03.820Z,101795.85
2018-12-11T19:58:32.915Z,101801.99
2018-12-11T20:01:01.983Z,101808.52
2018-12-11T20:03:31.050Z,101807.61
2018-12-11T20:06:06.689Z,101809.12
2018-12-11T20:08:35.758Z,101808.88
2018-12-11T20:11:04.845Z,101817.57
2018-12-11T20:13:33.932Z,101821.75
2018-12-11T20:16:03.003Z,101824.46
2018-12-11T20:18:32.069Z,101827.62
2018-12-11T20:21:01.182Z,101830.28
2018-12-11T20:23:30.248Z,101834.33
2018-12-11T20:25:59.312Z,101829.34
2018-12-11T20:28:28.439Z,101831.81
2018-12-11T20:30:57.494Z,101832.64
2018-12-11T20:33:26.714Z,101834.47
2018-12-11T20:35:55.809Z,101832.64
2018-12-11T20:38:24.878Z,101833.48
2018-12-11T20:40:54.016Z,101842.21
2018-12-11T20:43:23.417Z,101844.64
2018-12-11T20:45:52.497Z,101846.87
2018-12-11T20:48:21.574Z,101850.63
2018-12-11T20:50:50.911Z,101855.34
2018-12-11T20:53:19.979Z,101856.15
2018-12-11T20:55:49.061Z,101854.30
2018-12-11T20:58:18.148Z,101857.03
2018-12-11T21:00:47.204Z,101857.17
2018-12-11T21:03:16.285Z,101861.16
2018-12-11T21:06:08.216Z,101867.05
2018-12-11T21:08:37.285Z,101866.89
2018-12-11T21:11:06.391Z,101863.00
2018-12-11T21:13:35.443Z,101869.27
2018-12-11T21:16:04.513Z,101866.73
2018-12-11T21:18:33.602Z,101870.06
2018-12-11T21:21:02.662Z,101879.41
2018-12-11T21:23:31.725Z,101876.88
2018-12-11T21:26:00.819Z,101878.78
2018-12-11T21:28:29.885Z,101885.48
2018-12-11T21:30:58.944Z,101883.51
2018-12-11T21:33:28.028Z,101885.20
2018-12-11T21:36:01.777Z,101894.21
2018-12-11T21:38:30.886Z,101895.01
2018-12-11T21:40:59.946Z,101901.08
2018-12-11T21:43:29.002Z,101898.48
2018-12-11T21:45:58.118Z,101900.11
2018-12-11T21:48:27.182Z,101906.08
2018-12-11T21:50:56.252Z,101905.78
2018-12-11T21:53:25.350Z,101908.17
2018-12-11T21:58:51.901Z,101911.55
2018-12-11T22:01:20.959Z,101912.63
2018-12-11T22:03:50.013Z,101913.82
2018-12-11T22:06:19.301Z,101922.34
2018-12-11T22:08:48.359Z,101929.38
2018-12-11T22:11:17.579Z,101924.27
2018-12-11T22:13:46.664Z,101935.45
2018-12-11T22:16:15.731Z,101936.01
2018-12-11T22:18:44.811Z,101936.35
2018-12-11T22:21:13.906Z,101937.92
2018-12-11T22:23:42.966Z,101944.30
2018-12-11T22:26:12.032Z,101946.78
2018-12-11T22:28:41.186Z,101947.52
2018-12-11T22:31:10.244Z,101949.30
2018-12-11T22:33:39.420Z,101947.45
2018-12-11T22:36:08.501Z,101958.06
2018-12-11T22:38:37.565Z,101962.14
2018-12-11T22:41:06.629Z,101958.07
2018-12-11T22:43:35.713Z,101960.80
2018-12-11T22:46:04.780Z,101970.27
2018-12-11T22:48:33.840Z,101968.34
2018-12-11T22:51:03.224Z,101967.27
2018-12-11T22:53:32.284Z,101973.73
2018-12-11T22:56:01.340Z,101973.38
2018-12-11T22:58:30.426Z,101975.73
2018-12-11T23:00:59.475Z,101974.99
2018-12-11T23:03:28.528Z,101982.37
2018-12-11T23:05:57.611Z,101988.25
2018-12-11T23:08:26.687Z,101991.69
2018-12-11T23:10:55.749Z,101991.31
2018-12-11T23:13:24.868Z,101994.38
2018-12-11T23:15:57.427Z,101998.96
2018-12-11T23:18:26.501Z,101994.01
2018-12-11T23:20:55.561Z,101997.36
2018-12-11T23:23:24.631Z,102002.11
2018-12-11T23:25:53.712Z,101996.33
2018-12-11T23:28:22.769Z,102006.89
2018-12-11T23:30:51.816Z,102002.26
2018-12-11T23:33:20.921Z,102008.25
2018-12-11T23:35:49.996Z,102014.36
2018-12-11T23:38:19.057Z,102021.60
2018-12-11T23:40:48.220Z,102017.13
2018-12-11T23:43:17.206Z,102029.04
2018-12-11T23:46:04.720Z,102024.67
2018-12-11T23:48:33.785Z,102028.34
2018-12-11T23:51:02.833Z,102029.65
2018-12-11T23:53:31.935Z,102033.86
2018-12-11T23:56:00.993Z,102039.69
2018-12-11T23:58:30.045Z,102038.70
